Burlington Alamance Regional Airport


Codes: KBUY/
Name: Burlington Alamance Regional Airport
City: Burlington
Country: United States
Elevation: 617 ft.
Wikipedia:

Photos at Burlington Alamance Regional Airport


   Photos courtesy of SpottingLog. You can add your own sightings and photos by signing up for a free trial today.



No photos found.

Weather at Burlington Alamance Regional Airport


Time (UTC)DescriptionTempratureWindCloud coverageVisibilityPressureHumidity
26-Jun-2024 00:00Clear Sky33°C2 mph, NW0%10000m1013hPa42%
26-Jun-2024 03:00Clear Sky30°C9 mph, S7%10000m1013hPa54%
26-Jun-2024 06:00Clear Sky25°C7 mph, S7%10000m1014hPa78%
26-Jun-2024 09:00Clear Sky20°C7 mph, SW0%10000m1013hPa96%
26-Jun-2024 12:00Clear Sky25°C7 mph, SW0%10000m1013hPa77%
26-Jun-2024 15:00Clear Sky33°C7 mph, SW5%10000m1012hPa42%
26-Jun-2024 18:00Few Clouds37°C9 mph, SW23%10000m1009hPa28%
26-Jun-2024 21:00Clear Sky38°C9 mph, SW8%10000m1006hPa25%
27-Jun-2024 00:00Few Clouds33°C9 mph, S11%10000m1005hPa36%
27-Jun-2024 03:00Scattered Clouds27°C13 mph, SW43%10000m1007hPa58%
27-Jun-2024 06:00Light Rain23°C2 mph, W70%10000m1009hPa79%
27-Jun-2024 09:00Light Rain21°C4 mph, NE96%10000m1008hPa88%
27-Jun-2024 12:00Overcast Clouds23°C7 mph, N98%10000m1009hPa81%
27-Jun-2024 15:00Overcast Clouds29°C7 mph, NE97%10000m1010hPa52%
27-Jun-2024 18:00Overcast Clouds30°C9 mph, NE97%10000m1010hPa50%
27-Jun-2024 21:00Scattered Clouds33°C4 mph, NE26%10000m1008hPa39%
28-Jun-2024 00:00Light Rain25°C7 mph, NE62%10000m1010hPa73%
28-Jun-2024 03:00Scattered Clouds22°C4 mph, E33%10000m1012hPa89%
28-Jun-2024 06:00Few Clouds21°C4 mph, E17%10000m1012hPa96%
28-Jun-2024 09:00Scattered Clouds21°C7 mph, NE43%10000m1013hPa98%
28-Jun-2024 12:00Broken Clouds23°C7 mph, NE70%10000m1016hPa88%
28-Jun-2024 15:00Overcast Clouds30°C9 mph, E100%10000m1016hPa57%
28-Jun-2024 18:00Overcast Clouds34°C9 mph, SE91%10000m1014hPa40%
28-Jun-2024 21:00Overcast Clouds32°C9 mph, E93%10000m1013hPa47%
29-Jun-2024 00:00Overcast Clouds28°C13 mph, SE95%10000m1015hPa64%
29-Jun-2024 03:00Light Rain24°C9 mph, SE62%10000m1017hPa85%
29-Jun-2024 06:00Broken Clouds23°C7 mph, S59%10000m1017hPa91%
29-Jun-2024 09:00Light Rain22°C4 mph, S99%10000m1018hPa96%
29-Jun-2024 12:00Overcast Clouds24°C9 mph, S100%10000m1019hPa89%
29-Jun-2024 15:00Overcast Clouds31°C9 mph, SW93%10000m1019hPa51%
29-Jun-2024 18:00Broken Clouds36°C11 mph, SW77%10000m1018hPa36%
29-Jun-2024 21:00Overcast Clouds34°C9 mph, SW100%10000m1016hPa40%
30-Jun-2024 00:00Overcast Clouds30°C2 mph, W100%10000m1016hPa53%
30-Jun-2024 03:00Light Rain26°C7 mph, S96%10000m1018hPa74%
30-Jun-2024 06:00Light Rain24°C9 mph, S98%10000m1018hPa85%
30-Jun-2024 09:00Moderate Rain23°C7 mph, SW100%5892m1018hPa97%
30-Jun-2024 12:00Moderate Rain23°C7 mph, SW100%4732m1019hPa97%
30-Jun-2024 15:00Moderate Rain23°C7 mph, SW100%10000m1019hPa98%
30-Jun-2024 18:00Moderate Rain23°C7 mph, SW100%10000m1018hPa97%
30-Jun-2024 21:00Light Rain27°C9 mph, SW100%10000m1017hPa78%